»·PEaware :: N729MG 6S0-KPRC

N729MG :: 6S0-KPRC

FLIGHT INFORMATION

Flight Status: Arrived
Operator: Privately registered:
United States
More flights under this callsign
Pilot: Matt G. (17748)
Aircraft: SOCATA TBM-900
(TBM9)
More flights by this aircraft type
Origin: 6S0 Big Timber
United States
Destination: KPRC Love
United States
More flights between these airports :: More routes between these airports
Route: +LVM DBS J9 TCH J11 NAVHO V257 DRK
File this flight plan on PilotEdge
Remarks:
Altitude:
(Current/Filed)
22,000ft
Speed:
(Current/Filed)
300kts
Departed: 15-Feb-19 04:43 PM
Arrived: 15-Feb-19 07:47 PM
Distance/Time
Traveled:
678nm/3:03
Distance/Time
To Go:
Arrived

Flight Plot

Page will automatically refresh every two minutes.

Flight plan parsing failed; only flown route is shown


Map Options




Map Legend


Flown Route
Filed Route
Departure Airport
Arrival Airport
Navaid (VOR, NDB)
Fix

Horizontal Profiles

Position Reports

Time Latitude Longitude Heading Altitude Ground
Speed
15-Feb-19 16:12 45.808598 -109.974014 73 4495ft 0kts
15-Feb-19 16:13 45.808598 -109.974014 73 4495ft 0kts
15-Feb-19 16:14 45.808598 -109.974014 73 4495ft 0kts
15-Feb-19 16:15 45.808598 -109.974014 73 4495ft 0kts
15-Feb-19 16:16 45.808598 -109.974014 73 4495ft 0kts
15-Feb-19 16:17 45.808598 -109.974014 73 4495ft 0kts
15-Feb-19 16:18 45.808598 -109.974014 73 4495ft 0kts
15-Feb-19 16:19 45.808598 -109.974014 73 4495ft 0kts
15-Feb-19 16:20 45.808598 -109.974014 73 4495ft 0kts
15-Feb-19 16:21 45.808598 -109.974014 73 4495ft 0kts
15-Feb-19 16:22 45.808598 -109.974014 73 4495ft 0kts
15-Feb-19 16:23 45.808598 -109.974014 73 4495ft 0kts
15-Feb-19 16:24 45.808598 -109.974014 73 4495ft 0kts
15-Feb-19 16:25 45.808598 -109.974014 73 4495ft 0kts
15-Feb-19 16:26 45.808598 -109.974014 73 4495ft 0kts
15-Feb-19 16:27 45.808598 -109.974014 73 4495ft 0kts
15-Feb-19 16:28 45.808598 -109.974014 73 4495ft 0kts
15-Feb-19 16:29 45.808598 -109.974014 73 4495ft 0kts
15-Feb-19 16:30 45.808598 -109.974014 73 4495ft 0kts
15-Feb-19 16:31 45.808598 -109.974014 73 4495ft 0kts
15-Feb-19 16:32 45.808598 -109.974014 73 4495ft 0kts
15-Feb-19 16:33 45.808598 -109.974014 73 4495ft 0kts
15-Feb-19 16:34 45.808598 -109.974014 73 4495ft 0kts
15-Feb-19 16:35 45.808563 -109.973236 73 4495ft 6kts
15-Feb-19 16:36 45.809346 -109.969334 73 4495ft 13kts
15-Feb-19 16:37 45.809459 -109.967717 166 4495ft 0kts
15-Feb-19 16:38 45.809459 -109.967717 166 4495ft 0kts
15-Feb-19 16:39 45.809459 -109.967717 166 4495ft 0kts
15-Feb-19 16:40 45.809459 -109.967717 166 4495ft 0kts
15-Feb-19 16:41 45.808936 -109.967981 250 4495ft 0kts
15-Feb-19 16:42 45.804540 -109.992301 255 5037ft 122kts
15-Feb-19 16:43 45.795799 -110.043047 251 6858ft 144kts
15-Feb-19 16:44 45.780647 -110.096034 247 8945ft 141kts
15-Feb-19 16:45 45.768394 -110.149413 249 10816ft 140kts
15-Feb-19 16:46 45.756561 -110.202340 250 12496ft 139kts
15-Feb-19 16:47 45.744415 -110.256478 250 14035ft 141kts
15-Feb-19 16:48 45.732154 -110.311067 250 15397ft 142kts
15-Feb-19 16:49 45.719765 -110.366004 250 16200ft 145kts
15-Feb-19 16:50 45.707141 -110.421872 249 16939ft 147kts
15-Feb-19 16:51 45.681293 -110.466341 222 17712ft 148kts
15-Feb-19 16:52 45.648667 -110.503500 222 18430ft 149kts
15-Feb-19 16:53 45.614637 -110.542034 222 19829ft 152kts
15-Feb-19 16:54 45.582072 -110.578858 222 21160ft 155kts
15-Feb-19 16:55 45.545900 -110.619755 221 21654ft 188kts
15-Feb-19 16:56 45.502984 -110.668062 220 21655ft 229kts
15-Feb-19 16:57 45.453771 -110.723355 220 21642ft 246kts
15-Feb-19 16:58 45.402540 -110.780804 219 21636ft 251kts
15-Feb-19 16:59 45.350091 -110.839486 219 21634ft 253kts
15-Feb-19 17:00 45.296359 -110.899576 219 21635ft 247kts
15-Feb-19 17:01 45.242895 -110.958731 220 21750ft 251kts
15-Feb-19 17:02 45.185877 -111.022329 219 21626ft 255kts
15-Feb-19 17:03 45.128884 -111.085467 219 21622ft 254kts
15-Feb-19 17:04 45.072013 -111.148291 219 21629ft 253kts
15-Feb-19 17:05 45.016104 -111.209872 219 21643ft 251kts
15-Feb-19 17:06 44.961663 -111.269692 219 21646ft 246kts
15-Feb-19 17:07 44.908555 -111.327918 219 21653ft 242kts
15-Feb-19 17:08 44.859262 -111.381836 219 21662ft 241kts
15-Feb-19 17:09 44.807271 -111.438578 219 21660ft 241kts
15-Feb-19 17:10 44.756642 -111.493708 219 21659ft 240kts
15-Feb-19 17:11 44.705086 -111.549723 219 21660ft 238kts
15-Feb-19 17:12 44.653236 -111.605919 219 21658ft 237kts
15-Feb-19 17:13 44.601059 -111.662329 219 21664ft 236kts
15-Feb-19 17:14 44.547150 -111.720479 219 21663ft 238kts
15-Feb-19 17:15 44.492524 -111.779250 219 21664ft 241kts
15-Feb-19 17:16 44.438959 -111.836758 219 21681ft 241kts
15-Feb-19 17:17 44.385595 -111.893954 219 21714ft 241kts
15-Feb-19 17:18 44.330555 -111.952822 219 21728ft 242kts
15-Feb-19 17:19 44.275281 -112.011743 219 21724ft 243kts
15-Feb-19 17:20 44.219918 -112.070611 219 21715ft 242kts
15-Feb-19 17:21 44.164341 -112.129567 219 21711ft 242kts
15-Feb-19 17:22 44.109956 -112.187091 219 21708ft 234kts
15-Feb-19 17:23 44.044900 -112.206154 185 21711ft 247kts
15-Feb-19 17:24 43.973605 -112.200918 185 21709ft 247kts
15-Feb-19 17:26 43.903358 -112.195754 185 21708ft 247kts
15-Feb-19 17:27 43.835144 -112.190716 186 21717ft 244kts
15-Feb-19 17:28 43.767958 -112.185815 186 21752ft 245kts
15-Feb-19 17:29 43.698924 -112.180777 185 21770ft 251kts
15-Feb-19 17:30 43.629196 -112.175593 185 21779ft 250kts
15-Feb-19 17:31 43.559548 -112.170534 185 21785ft 250kts
15-Feb-19 17:32 43.490252 -112.165470 186 21778ft 248kts
15-Feb-19 17:33 43.421285 -112.160531 186 21777ft 247kts
15-Feb-19 17:34 43.352781 -112.155584 186 21777ft 246kts
15-Feb-19 17:35 43.283857 -112.150638 186 21779ft 251kts
15-Feb-19 17:36 43.213747 -112.145579 186 21784ft 254kts
15-Feb-19 17:37 43.141893 -112.140427 186 21793ft 255kts
15-Feb-19 17:38 43.069533 -112.135162 186 21805ft 255kts
15-Feb-19 17:39 42.997890 -112.130032 186 21811ft 255kts
15-Feb-19 17:40 42.926518 -112.124943 186 21810ft 256kts
15-Feb-19 17:41 42.856959 -112.119992 186 21820ft 256kts
15-Feb-19 17:42 42.787123 -112.115037 186 21819ft 257kts
15-Feb-19 17:43 42.718337 -112.110275 187 21816ft 253kts
15-Feb-19 17:43 42.660624 -112.106209 187 21823ft 251kts
15-Feb-19 17:45 42.577789 -112.100377 187 21831ft 251kts
15-Feb-19 17:46 42.506829 -112.095386 187 21834ft 250kts
15-Feb-19 17:46 42.447817 -112.091188 187 21830ft 252kts
15-Feb-19 17:47 42.376149 -112.086105 187 21833ft 254kts
15-Feb-19 17:48 42.304498 -112.081128 187 21833ft 252kts
15-Feb-19 17:50 42.221152 -112.075288 187 21832ft 252kts
15-Feb-19 17:50 42.161939 -112.071181 187 21830ft 252kts
15-Feb-19 17:51 42.090461 -112.066226 187 21829ft 252kts
15-Feb-19 17:52 42.019383 -112.061366 187 21825ft 251kts
15-Feb-19 17:53 41.948949 -112.056507 187 21832ft 252kts
15-Feb-19 17:54 41.879386 -112.051713 187 21835ft 252kts
15-Feb-19 17:55 41.812075 -112.047102 187 21839ft 254kts
15-Feb-19 17:56 41.751856 -112.042941 187 21845ft 254kts
15-Feb-19 17:57 41.690449 -112.038738 187 21837ft 254kts
15-Feb-19 17:58 41.627174 -112.034396 187 21844ft 254kts
15-Feb-19 17:59 41.562776 -112.030005 187 21841ft 253kts
15-Feb-19 18:00 41.497840 -112.025596 187 21840ft 253kts
15-Feb-19 18:01 41.432850 -112.021170 188 21840ft 254kts
15-Feb-19 18:02 41.366299 -112.016621 188 21825ft 251kts
15-Feb-19 18:03 41.312713 -112.013039 188 21823ft 254kts
15-Feb-19 18:04 41.259831 -112.009473 188 21813ft 256kts
15-Feb-19 18:05 41.196083 -112.005151 188 21812ft 256kts
15-Feb-19 18:06 41.129924 -112.000695 188 21811ft 256kts
15-Feb-19 18:07 41.060558 -111.996085 188 21819ft 256kts
15-Feb-19 18:08 40.993298 -111.991580 188 21818ft 257kts
15-Feb-19 18:09 40.924234 -111.986961 189 21816ft 257kts
15-Feb-19 18:10 40.870850 -111.983331 189 21818ft 255kts
15-Feb-19 18:11 40.848211 -111.981816 189 21836ft 256kts
15-Feb-19 18:12 40.792084 -111.977762 189 21811ft 256kts
15-Feb-19 18:13 40.731372 -111.973317 189 21827ft 258kts
15-Feb-19 18:14 40.666019 -111.968678 189 21823ft 257kts
15-Feb-19 18:15 40.598163 -111.963789 189 21823ft 256kts
15-Feb-19 18:16 40.527216 -111.958693 189 21822ft 256kts
15-Feb-19 18:17 40.459221 -111.953807 189 21821ft 256kts
15-Feb-19 18:18 40.378294 -111.948019 189 21819ft 256kts
15-Feb-19 18:19 40.283817 -111.941211 189 21816ft 258kts
15-Feb-19 18:20 40.208180 -111.950271 198 21798ft 251kts
15-Feb-19 18:21 40.117006 -111.963527 198 21800ft 249kts
15-Feb-19 18:22 40.045696 -111.973874 198 21800ft 249kts
15-Feb-19 18:23 39.975969 -111.983961 198 21799ft 249kts
15-Feb-19 18:24 39.906638 -111.993974 198 21799ft 249kts
15-Feb-19 18:25 39.839692 -112.003624 198 21808ft 250kts
15-Feb-19 18:26 39.771960 -112.013461 198 21808ft 250kts
15-Feb-19 18:27 39.703639 -112.023241 198 21806ft 248kts
15-Feb-19 18:28 39.636007 -112.032921 198 21812ft 247kts
15-Feb-19 18:29 39.568089 -112.042588 198 21822ft 247kts
15-Feb-19 18:30 39.498399 -112.052523 198 21832ft 248kts
15-Feb-19 18:31 39.428860 -112.062425 198 21832ft 248kts
15-Feb-19 18:32 39.358277 -112.072438 198 21831ft 248kts
15-Feb-19 18:33 39.288243 -112.082389 198 21832ft 248kts
15-Feb-19 18:34 39.218079 -112.092317 199 21831ft 247kts
15-Feb-19 18:35 39.148145 -112.102192 199 21831ft 247kts
15-Feb-19 18:36 39.078755 -112.111982 199 21830ft 246kts
15-Feb-19 18:37 39.009099 -112.121781 199 21830ft 246kts
15-Feb-19 18:38 38.938959 -112.131630 199 21834ft 248kts
15-Feb-19 18:39 38.877679 -112.140227 199 21845ft 249kts
15-Feb-19 18:40 38.810351 -112.149650 199 21844ft 250kts
15-Feb-19 18:41 38.742883 -112.159067 199 21844ft 249kts
15-Feb-19 18:42 38.673299 -112.168822 200 21840ft 248kts
15-Feb-19 18:43 38.604717 -112.178420 200 21842ft 245kts
15-Feb-19 18:44 38.536819 -112.187855 200 21841ft 244kts
15-Feb-19 18:45 38.468945 -112.197251 200 21847ft 244kts
15-Feb-19 18:46 38.400503 -112.206620 200 21840ft 246kts
15-Feb-19 18:47 38.332015 -112.216050 200 21846ft 246kts
15-Feb-19 18:48 38.263323 -112.225514 200 21853ft 246kts
15-Feb-19 18:49 38.194490 -112.234986 200 21858ft 246kts
15-Feb-19 18:50 38.126935 -112.244352 200 21856ft 240kts
15-Feb-19 18:51 38.060116 -112.253523 200 21864ft 238kts
15-Feb-19 18:52 37.993935 -112.262533 201 21907ft 240kts
15-Feb-19 18:53 37.926024 -112.271800 200 21863ft 243kts
15-Feb-19 18:54 37.859142 -112.280906 200 21885ft 243kts
15-Feb-19 18:55 37.791548 -112.290103 200 21903ft 244kts
15-Feb-19 18:56 37.723679 -112.299382 200 21916ft 247kts
15-Feb-19 18:57 37.653852 -112.306205 197 21913ft 252kts
15-Feb-19 18:58 37.583674 -112.310454 197 21912ft 247kts
15-Feb-19 18:59 37.513808 -112.314720 198 21912ft 245kts
15-Feb-19 19:00 37.444848 -112.318932 197 21911ft 244kts
15-Feb-19 19:01 37.376924 -112.322971 198 21910ft 240kts
15-Feb-19 19:02 37.309397 -112.327068 198 21910ft 239kts
15-Feb-19 19:03 37.241654 -112.331185 198 21909ft 238kts
15-Feb-19 19:04 37.173919 -112.335275 198 21908ft 238kts
15-Feb-19 19:05 37.106080 -112.339499 198 21908ft 247kts
15-Feb-19 19:06 37.035218 -112.343703 197 21891ft 254kts
15-Feb-19 19:07 36.963263 -112.348015 198 21889ft 256kts
15-Feb-19 19:08 36.892193 -112.352291 198 21893ft 257kts
15-Feb-19 19:09 36.820147 -112.356621 197 21896ft 258kts
15-Feb-19 19:10 36.747996 -112.360940 197 21895ft 258kts
15-Feb-19 19:11 36.677332 -112.365292 197 20382ft 256kts
15-Feb-19 19:12 36.604986 -112.369640 196 19192ft 256kts
15-Feb-19 19:13 36.533111 -112.373840 195 18570ft 254kts
15-Feb-19 19:14 36.461841 -112.378026 195 17976ft 252kts
15-Feb-19 19:15 36.391085 -112.382228 195 17986ft 251kts
15-Feb-19 19:16 36.320104 -112.386488 195 17984ft 253kts
15-Feb-19 19:17 36.248405 -112.390751 195 17985ft 254kts
15-Feb-19 19:18 36.175474 -112.395060 195 17985ft 255kts
15-Feb-19 19:19 36.102905 -112.399305 195 17984ft 254kts
15-Feb-19 19:20 36.031380 -112.403511 195 17983ft 253kts
15-Feb-19 19:21 35.959809 -112.407701 194 17988ft 256kts
15-Feb-19 19:22 35.886724 -112.412000 193 16795ft 264kts
15-Feb-19 19:23 35.816144 -112.416214 193 15990ft 252kts
15-Feb-19 19:24 35.742812 -112.420545 191 14558ft 264kts
15-Feb-19 19:25 35.668932 -112.424681 191 13308ft 260kts
15-Feb-19 19:26 35.597172 -112.428805 191 12938ft 247kts
15-Feb-19 19:27 35.528123 -112.432834 191 12940ft 243kts
15-Feb-19 19:29 35.459970 -112.439392 209 12937ft 234kts
15-Feb-19 19:30 35.391089 -112.425782 167 12983ft 263kts
15-Feb-19 19:31 35.322519 -112.392504 167 12623ft 260kts
15-Feb-19 19:32 35.254583 -112.359589 166 11525ft 258kts
15-Feb-19 19:33 35.187543 -112.327101 165 10996ft 254kts
15-Feb-19 19:34 35.121211 -112.294998 165 10996ft 253kts
15-Feb-19 19:35 35.055057 -112.263045 165 10996ft 252kts
15-Feb-19 19:36 34.988840 -112.231110 165 10833ft 251kts
15-Feb-19 19:37 34.928995 -112.202340 164 9873ft 210kts
15-Feb-19 19:38 34.877495 -112.185079 210 9052ft 166kts
15-Feb-19 19:39 34.844849 -112.216452 220 8721ft 141kts
15-Feb-19 19:40 34.813101 -112.250305 220 8260ft 150kts
15-Feb-19 19:41 34.780709 -112.284993 220 7868ft 133kts
15-Feb-19 19:42 34.751513 -112.316134 221 7355ft 128kts
15-Feb-19 19:43 34.725371 -112.343893 221 6608ft 112kts
15-Feb-19 19:44 34.701752 -112.369202 215 6046ft 91kts
15-Feb-19 19:45 34.680353 -112.391912 217 5448ft 98kts
15-Feb-19 19:46 34.660767 -112.412808 216 4961ft 73kts
15-Feb-19 19:46 34.654892 -112.420176 315 4987ft 6kts
15-Feb-19 19:48 34.655327 -112.420761 307 4985ft 4kts
15-Feb-19 19:49 34.655289 -112.421533 182 4986ft 2kts
15-Feb-19 19:49 34.655180 -112.421423 132 4987ft 0kts
15-Feb-19 19:50 34.655180 -112.421423 132 4987ft 0kts

Navigation Log

Ident Type
Flight plan parsing failed, navigation log unavailable